Time;durP1;ratioP1;P1;durP2;ratioP2;P2;SDS_P1;SDS_P2;PMS_P1;PMS_P2;Temp;Humidity;BMP_temperature;BMP_pressure;BME280_temperature;BME280_humidity;BME280_pressure;Samples;Min_cycle;Max_cycle;Signal;HPM_P1;HPM_P2
2021/08/07 00:02:15;;;;;;;;;;;;;;;12.34;54.77;99912.13;1691812;83;20248;-78
2021/08/07 00:04:41;;;;;;;;;;;;;;;12.31;54.82;99913.08;1697640;83;20167;-78
2021/08/07 00:07:09;;;;;;;;;;;;;;;12.28;54.94;99911.03;1695574;84;20512;-78
2021/08/07 00:09:36;;;;;;;;;;;;;;;12.26;55.03;99911.09;1699389;84;20181;-78
2021/08/07 00:12:02;;;;;;;;;;;;;;;12.22;55.07;99905.16;1683978;84;20148;-78
2021/08/07 00:14:29;;;;;;;;;;;;;;;12.19;55.12;99910.45;1707992;83;20507;-78
2021/08/07 00:16:56;;;;;;;;;;;;;;;12.17;55.18;99904.92;1698426;83;20231;-78
2021/08/07 00:19:22;;;;;;;;;;;;;;;12.14;55.24;99901.98;1689486;83;20205;-78
2021/08/07 00:21:48;;;;;;;;;;;;;;;12.10;55.27;99899.54;1696696;84;20505;-78
2021/08/07 00:24:15;;;;;;;;;;;;;;;12.07;55.35;99901.78;1692624;84;20540;-78
2021/08/07 00:26:43;;;;;;;;;;;;;;;12.06;55.35;99899.25;1699839;84;20493;-78
2021/08/07 00:29:09;;;;;;;;;;;;;;;12.04;55.37;99898.00;1693547;83;20453;-78
2021/08/07 00:31:35;;;;;;;;;;;;;;;12.01;55.34;99898.10;1689020;83;20449;-78
2021/08/07 00:34:02;;;;;;;;;;;;;;;12.00;55.39;99889.94;1705530;83;20446;-78
2021/08/07 00:36:28;;;;;;;;;;;;;;;11.98;55.47;99894.77;1705203;82;218256;-78
2021/08/07 00:38:54;;;;;;;;;;;;;;;11.94;55.51;99896.64;1695464;81;20275;-78
2021/08/07 00:41:20;;;;;;;;;;;;;;;11.92;55.60;99898.44;1701102;82;20841;-78
2021/08/07 00:43:46;;;;;;;;;;;;;;;11.89;55.59;99893.36;1699482;81;20566;-78
2021/08/07 00:46:12;;;;;;;;;;;;;;;11.87;55.62;99896.00;1704630;81;20501;-78
2021/08/07 00:48:38;;;;;;;;;;;;;;;11.85;55.68;99890.47;1702530;83;20193;-78
2021/08/07 00:51:04;;;;;;;;;;;;;;;11.81;55.73;99893.61;1693268;83;20826;-78
2021/08/07 00:53:31;;;;;;;;;;;;;;;11.80;55.76;99886.73;1695526;83;20481;-78
2021/08/07 00:55:57;;;;;;;;;;;;;;;11.78;55.87;99894.16;1704403;81;20579;-78
2021/08/07 00:58:23;;;;;;;;;;;;;;;11.76;55.94;99893.32;1674098;83;20559;-78
2021/08/07 01:00:49;;;;;;;;;;;;;;;11.74;55.94;99895.11;1705613;83;20201;-78
2021/08/07 01:03:39;;;;;;;;;;;;;;;11.72;55.99;99895.16;1702570;83;20501;-78
2021/08/07 01:06:25;;;;;;;;;;;;;;;11.71;55.98;99892.17;1695978;81;20546;-78
2021/08/07 01:08:57;;;;;;;;;;;;;;;11.68;56.01;99890.98;1680334;84;20172;-78
2021/08/07 01:11:47;;;;;;;;;;;;;;;11.66;56.07;99897.95;1692694;81;20463;-78
2021/08/07 01:14:15;;;;;;;;;;;;;;;11.63;56.10;99896.75;1688871;83;20132;-78
2021/08/07 01:16:49;;;;;;;;;;;;;;;11.60;56.14;99898.14;1705686;83;20457;-78
2021/08/07 01:19:17;;;;;;;;;;;;;;;11.57;56.23;99899.09;1703598;81;20434;-78
2021/08/07 01:21:50;;;;;;;;;;;;;;;11.55;56.31;99898.28;1704359;83;20131;-78
2021/08/07 01:24:22;;;;;;;;;;;;;;;11.54;56.32;99900.92;1693584;83;20446;-78
2021/08/07 01:27:00;;;;;;;;;;;;;;;11.52;56.38;99902.27;1694086;83;20445;-78
2021/08/07 01:29:28;;;;;;;;;;;;;;;11.50;56.46;99899.33;1703116;83;20387;-78
2021/08/07 01:31:54;;;;;;;;;;;;;;;11.50;56.53;99903.20;1703686;83;20472;-78
2021/08/07 01:34:21;;;;;;;;;;;;;;;11.48;56.62;99898.52;1711205;81;20452;-78
2021/08/07 01:36:48;;;;;;;;;;;;;;;11.45;56.63;99885.23;1704619;83;20106;-78
2021/08/07 01:39:15;;;;;;;;;;;;;;;11.45;56.70;99886.97;1707128;83;20134;-78
2021/08/07 01:41:41;;;;;;;;;;;;;;;11.42;56.81;99884.06;1703041;83;20493;-78
2021/08/07 01:44:07;;;;;;;;;;;;;;;11.41;56.83;99887.55;1702573;83;20577;-78
2021/08/07 01:46:49;;;;;;;;;;;;;;;11.41;56.89;99884.11;1706015;81;20182;-78
2021/08/07 01:49:18;;;;;;;;;;;;;;;11.43;56.93;99883.16;1701343;83;20465;-78
2021/08/07 01:51:55;;;;;;;;;;;;;;;11.44;56.96;99883.53;1702059;82;20197;-78
2021/08/07 01:54:28;;;;;;;;;;;;;;;11.46;57.03;99879.60;1709028;83;20141;-78
2021/08/07 01:56:56;;;;;;;;;;;;;;;11.45;57.12;99876.16;1704143;83;20237;-78
2021/08/07 01:59:22;;;;;;;;;;;;;;;11.44;57.09;99877.06;1702687;83;20502;-78
2021/08/07 02:01:49;;;;;;;;;;;;;;;11.43;57.19;99873.25;1699287;81;20618;-78
2021/08/07 02:04:22;;;;;;;;;;;;;;;11.43;57.21;99871.96;1701263;83;20670;-78
2021/08/07 02:06:49;;;;;;;;;;;;;;;11.42;57.32;99872.86;1704434;83;20252;-78
2021/08/07 02:09:17;;;;;;;;;;;;;;;11.39;57.25;99867.33;1702848;83;20210;-78
2021/08/07 02:11:46;;;;;;;;;;;;;;;11.32;57.40;99866.27;1703051;83;20217;-78
2021/08/07 02:14:15;;;;;;;;;;;;;;;11.28;57.61;99859.89;1708889;83;20173;-78
2021/08/07 02:16:44;;;;;;;;;;;;;;;11.31;57.63;99861.54;1703060;83;20122;-78
2021/08/07 02:19:14;;;;;;;;;;;;;;;11.33;57.71;99870.55;1703852;83;20253;-78
2021/08/07 02:21:42;;;;;;;;;;;;;;;11.36;57.69;99866.58;1696299;83;20466;-78
2021/08/07 02:24:07;;;;;;;;;;;;;;;11.36;57.79;99873.05;1692653;82;20174;-78
2021/08/07 02:26:34;;;;;;;;;;;;;;;11.38;57.81;99867.38;1703954;81;20206;-78
2021/08/07 02:29:01;;;;;;;;;;;;;;;11.40;57.82;99865.59;1710050;81;20216;-78
2021/08/07 02:31:27;;;;;;;;;;;;;;;11.40;57.87;99871.61;1671162;84;20134;-78
2021/08/07 02:33:55;;;;;;;;;;;;;;;11.42;57.90;99875.00;1702937;83;20207;-78
2021/08/07 02:36:21;;;;;;;;;;;;;;;11.41;57.92;99865.54;1697596;83;20202;-78
2021/08/07 02:38:47;;;;;;;;;;;;;;;11.41;58.04;99864.25;1708540;83;20232;-78
2021/08/07 02:41:13;;;;;;;;;;;;;;;11.43;58.10;99860.31;1707979;83;20340;-78
2021/08/07 02:43:40;;;;;;;;;;;;;;;11.45;58.14;99858.49;1710601;83;20237;-78
2021/08/07 02:46:12;;;;;;;;;;;;;;;11.43;58.17;99858.57;1710699;83;20241;-78
2021/08/07 02:48:40;;;;;;;;;;;;;;;11.46;58.33;99863.63;1710353;83;20241;-78
2021/08/07 02:51:06;;;;;;;;;;;;;;;11.51;58.29;99857.85;1688581;83;20207;-78
2021/08/07 02:53:38;;;;;;;;;;;;;;;11.49;58.33;99862.23;1682114;85;20212;-78
2021/08/07 02:56:04;;;;;;;;;;;;;;;11.51;58.47;99861.73;1682377;85;20219;-78
2021/08/07 02:58:30;;;;;;;;;;;;;;;11.55;58.53;99865.92;1683386;83;20215;-77
2021/08/07 03:00:57;;;;;;;;;;;;;;;11.60;58.57;99867.06;1684443;83;20132;-77
2021/08/07 03:03:23;;;;;;;;;;;;;;;11.63;58.63;99857.91;1684185;85;20105;-77
2021/08/07 03:05:50;;;;;;;;;;;;;;;11.65;58.63;99863.88;1684409;83;20105;-78
2021/08/07 03:08:16;;;;;;;;;;;;;;;11.66;58.76;99856.96;1688530;81;20140;-78
2021/08/07 03:10:43;;;;;;;;;;;;;;;11.70;58.82;99855.52;1684425;84;20128;-78
2021/08/07 03:13:09;;;;;;;;;;;;;;;11.76;58.84;99853.17;1683688;84;20235;-78
2021/08/07 03:15:35;;;;;;;;;;;;;;;11.83;58.93;99862.47;1692275;83;20417;-79
2021/08/07 03:18:01;;;;;;;;;;;;;;;11.87;58.97;99856.30;1682503;83;20203;-78
2021/08/07 03:20:30;;;;;;;;;;;;;;;11.91;58.96;99863.91;1682326;85;20211;-78
2021/08/07 03:23:00;;;;;;;;;;;;;;;11.90;58.97;99862.67;1682527;83;20207;-78
2021/08/07 03:25:26;;;;;;;;;;;;;;;11.92;59.06;99867.34;1682315;83;20240;-78
2021/08/07 03:27:53;;;;;;;;;;;;;;;11.92;59.08;99859.58;1658873;83;20236;-78
2021/08/07 03:30:19;;;;;;;;;;;;;;;11.92;59.09;99860.88;1683218;83;20227;-78
2021/08/07 03:32:45;;;;;;;;;;;;;;;11.93;59.12;99859.53;1681973;84;20216;-78
2021/08/07 03:35:11;;;;;;;;;;;;;;;11.96;59.14;99855.95;1682002;85;20215;-78
2021/08/07 03:37:37;;;;;;;;;;;;;;;11.95;59.14;99851.70;1683178;83;20147;-78
2021/08/07 03:40:03;;;;;;;;;;;;;;;11.92;59.18;99851.36;1686670;83;20215;-78
2021/08/07 03:42:29;;;;;;;;;;;;;;;11.91;59.23;99850.95;1691670;83;20232;-78
2021/08/07 03:44:55;;;;;;;;;;;;;;;11.92;59.35;99855.24;1691164;82;20171;-78
2021/08/07 03:47:23;;;;;;;;;;;;;;;11.93;59.30;99849.61;1683682;83;20222;-78
2021/08/07 03:49:49;;;;;;;;;;;;;;;11.94;59.38;99856.48;1692804;83;20243;-78
2021/08/07 03:52:16;;;;;;;;;;;;;;;11.98;59.44;99857.20;1696415;83;20208;-78
2021/08/07 03:54:42;;;;;;;;;;;;;;;12.01;59.45;99851.91;1692132;83;20209;-78
2021/08/07 03:57:08;;;;;;;;;;;;;;;12.03;59.49;99848.37;1710959;83;20220;-78
2021/08/07 03:59:34;;;;;;;;;;;;;;;12.02;59.39;99849.27;1711082;83;20204;-77
2021/08/07 04:02:00;;;;;;;;;;;;;;;12.02;59.57;99852.31;1707147;83;20219;-78
2021/08/07 04:04:26;;;;;;;;;;;;;;;12.06;59.66;99855.20;1687012;83;20190;-78
2021/08/07 04:06:53;;;;;;;;;;;;;;;12.09;59.63;99848.16;1682483;85;20211;-78
2021/08/07 04:09:19;;;;;;;;;;;;;;;12.14;59.65;99849.30;1688059;83;20262;-78
2021/08/07 04:11:45;;;;;;;;;;;;;;;12.18;59.69;99849.59;1711199;83;20233;-78
2021/08/07 04:14:11;;;;;;;;;;;;;;;12.22;59.71;99847.30;1711041;83;20220;-78
2021/08/07 04:16:38;;;;;;;;;;;;;;;12.26;59.72;99848.42;1710165;83;20279;-78
2021/08/07 04:19:05;;;;;;;;;;;;;;;12.32;59.74;99855.14;1687290;83;20210;-78
2021/08/07 04:21:37;;;;;;;;;;;;;;;12.35;59.78;99853.73;1685251;83;20213;-78
2021/08/07 04:24:03;;;;;;;;;;;;;;;12.39;59.83;99856.63;1682926;83;20215;-78
2021/08/07 04:26:29;;;;;;;;;;;;;;;12.44;59.96;99860.34;1682506;84;20212;-78
2021/08/07 04:28:56;;;;;;;;;;;;;;;12.49;59.93;99863.14;1682619;84;20207;-78
2021/08/07 04:31:22;;;;;;;;;;;;;;;12.54;59.99;99860.38;1699642;83;20210;-78
2021/08/07 04:33:48;;;;;;;;;;;;;;;12.60;60.05;99863.60;1690061;83;20187;-78
2021/08/07 04:36:14;;;;;;;;;;;;;;;12.68;60.10;99855.55;1682658;85;20212;-78
2021/08/07 04:38:40;;;;;;;;;;;;;;;12.72;60.07;99849.80;1671051;85;20177;-78
2021/08/07 04:41:10;;;;;;;;;;;;;;;12.80;60.16;99858.14;1682617;85;20191;-78
2021/08/07 04:43:36;;;;;;;;;;;;;;;12.90;60.31;99859.49;1665174;85;20222;-78
2021/08/07 04:46:02;;;;;;;;;;;;;;;13.03;60.34;99865.03;1654834;85;20187;-78
2021/08/07 04:48:28;;;;;;;;;;;;;;;13.15;60.46;99861.97;1655073;86;20218;-78
2021/08/07 04:50:54;;;;;;;;;;;;;;;13.30;60.49;99868.36;1656229;85;20195;-78
2021/08/07 04:53:20;;;;;;;;;;;;;;;13.42;60.50;99866.13;1661259;85;20272;-78
2021/08/07 04:55:46;;;;;;;;;;;;;;;13.56;60.62;99873.34;1663011;85;20270;-78
2021/08/07 04:58:14;;;;;;;;;;;;;;;13.69;60.56;99865.91;1682452;85;20266;-77
2021/08/07 05:00:41;;;;;;;;;;;;;;;13.82;60.59;99861.89;1682605;85;20191;-77
2021/08/07 05:03:10;;;;;;;;;;;;;;;13.93;60.62;99866.66;1675002;84;20191;-77
2021/08/07 05:05:36;;;;;;;;;;;;;;;14.03;60.64;99864.06;1682844;85;20167;-78
2021/08/07 05:08:02;;;;;;;;;;;;;;;14.14;60.67;99865.27;1701321;83;20171;-78
2021/08/07 05:10:28;;;;;;;;;;;;;;;14.23;60.65;99870.08;1699349;83;20211;-78
2021/08/07 05:12:54;;;;;;;;;;;;;;;14.34;60.74;99869.62;1660228;85;20217;-78
2021/08/07 05:15:20;;;;;;;;;;;;;;;14.48;60.91;99873.80;1655139;85;20253;-78
2021/08/07 05:17:46;;;;;;;;;;;;;;;14.68;61.01;99865.54;1658043;85;20202;-78
2021/08/07 05:20:13;;;;;;;;;;;;;;;14.95;60.66;99868.20;1675786;83;20219;-78
2021/08/07 05:22:39;;;;;;;;;;;;;;;15.27;61.18;99867.98;1669536;83;20187;-78
2021/08/07 05:25:06;;;;;;;;;;;;;;;15.86;61.41;99866.41;1681459;85;20192;-78
2021/08/07 05:27:35;;;;;;;;;;;;;;;16.51;61.14;99866.10;1666088;85;20138;-78
2021/08/07 05:30:01;;;;;;;;;;;;;;;17.23;61.23;99872.66;1655378;85;20190;-78
2021/08/07 05:32:27;;;;;;;;;;;;;;;17.98;61.11;99869.72;1672553;84;20180;-78
2021/08/07 05:34:54;;;;;;;;;;;;;;;18.60;60.59;99871.23;1714519;83;20368;-78
2021/08/07 05:37:20;;;;;;;;;;;;;;;19.16;60.39;99870.78;1723465;82;20181;-78
2021/08/07 05:39:49;;;;;;;;;;;;;;;19.74;60.01;99867.88;1718420;83;20186;-78
2021/08/07 05:42:15;;;;;;;;;;;;;;;20.36;59.79;99871.96;1698976;83;20277;-78
2021/08/07 05:44:41;;;;;;;;;;;;;;;20.94;59.66;99877.60;1707250;83;20177;-79
2021/08/07 05:47:07;;;;;;;;;;;;;;;21.39;59.56;99879.58;1696708;84;20187;-79
2021/08/07 05:49:33;;;;;;;;;;;;;;;21.82;59.25;99888.77;1712033;82;20203;-79
2021/08/07 05:51:59;;;;;;;;;;;;;;;22.21;59.26;99887.09;1701993;83;20201;-79
2021/08/07 05:54:25;;;;;;;;;;;;;;;22.71;59.04;99883.67;1702469;83;20203;-79
2021/08/07 05:56:51;;;;;;;;;;;;;;;23.12;58.66;99887.02;1711820;83;20212;-79
2021/08/07 05:59:20;;;;;;;;;;;;;;;23.25;58.36;99893.47;1715928;82;20224;-78
2021/08/07 06:01:46;;;;;;;;;;;;;;;23.17;58.42;99891.44;1713439;83;20211;-78
2021/08/07 06:04:15;;;;;;;;;;;;;;;23.07;58.38;99885.22;1710465;83;20211;-79
2021/08/07 06:06:40;;;;;;;;;;;;;;;23.06;58.46;99887.02;1707707;83;20206;-79
2021/08/07 06:09:06;;;;;;;;;;;;;;;23.06;58.48;99892.77;1711505;81;20236;-79
2021/08/07 06:11:34;;;;;;;;;;;;;;;23.16;58.45;99887.13;1698946;82;20185;-79
2021/08/07 06:14:00;;;;;;;;;;;;;;;23.26;58.47;99880.16;1697655;83;20245;-79
2021/08/07 06:16:26;;;;;;;;;;;;;;;23.36;58.46;99886.85;1712048;83;20203;-79
2021/08/07 06:18:52;;;;;;;;;;;;;;;23.47;58.43;99882.00;1707184;81;20200;-79
2021/08/07 06:21:18;;;;;;;;;;;;;;;23.67;58.48;99887.84;1711435;83;20277;-79
2021/08/07 06:23:44;;;;;;;;;;;;;;;24.04;58.41;99881.17;1699200;81;20930;-79
2021/08/07 06:26:14;;;;;;;;;;;;;;;24.40;58.20;99885.68;1714062;83;20272;-79
2021/08/07 06:28:41;;;;;;;;;;;;;;;24.60;57.82;99892.72;1716904;81;20128;-79
2021/08/07 06:31:09;;;;;;;;;;;;;;;24.91;57.78;99889.59;1704580;81;20154;-79
2021/08/07 06:33:46;;;;;;;;;;;;;;;25.11;57.63;99891.81;1706178;83;20114;-81
2021/08/07 06:36:12;;;;;;;;;;;;;;;25.43;57.43;99894.27;1688541;84;20205;-79
2021/08/07 06:38:38;;;;;;;;;;;;;;;25.73;57.49;99897.30;1693860;84;20138;-79
2021/08/07 06:41:06;;;;;;;;;;;;;;;26.00;57.02;99899.22;1691520;84;20201;-79
2021/08/07 06:43:32;;;;;;;;;;;;;;;26.20;56.95;99900.03;1688975;84;20272;-79
2021/08/07 06:45:58;;;;;;;;;;;;;;;26.24;56.71;99898.28;1692868;84;20586;-79
2021/08/07 06:48:24;;;;;;;;;;;;;;;26.34;56.62;99896.98;1683366;84;20235;-79
2021/08/07 06:50:50;;;;;;;;;;;;;;;26.47;56.59;99898.83;1684635;84;20244;-79
2021/08/07 06:53:16;;;;;;;;;;;;;;;26.59;56.63;99891.52;1689228;84;20212;-79
2021/08/07 06:55:42;;;;;;;;;;;;;;;26.47;56.44;99886.06;1686826;84;20187;-79
2021/08/07 06:58:08;;;;;;;;;;;;;;;26.44;56.40;99887.68;1678807;84;20225;-78
2021/08/07 07:00:39;;;;;;;;;;;;;;;26.61;56.46;99892.20;1690746;83;20220;-78
2021/08/07 07:03:06;;;;;;;;;;;;;;;26.81;56.30;99893.81;1684969;84;20481;-78
2021/08/07 07:05:33;;;;;;;;;;;;;;;27.02;56.24;99907.71;1688182;84;20413;-79
2021/08/07 07:08:00;;;;;;;;;;;;;;;27.20;56.33;99905.57;1683985;84;20223;-79
2021/08/07 07:10:27;;;;;;;;;;;;;;;27.27;55.93;99905.32;1673249;84;20284;-78
2021/08/07 07:12:53;;;;;;;;;;;;;;;27.50;55.83;99907.06;1679878;84;20244;-78
2021/08/07 07:15:19;;;;;;;;;;;;;;;27.85;55.91;99909.75;1675323;84;20123;-78
2021/08/07 07:17:45;;;;;;;;;;;;;;;28.30;55.76;99908.30;1678597;84;20167;-78
2021/08/07 07:20:12;;;;;;;;;;;;;;;28.42;55.46;99909.37;1689734;84;20196;-78
2021/08/07 07:22:39;;;;;;;;;;;;;;;28.51;55.51;99916.41;1695735;84;20111;-78
2021/08/07 07:25:07;;;;;;;;;;;;;;;28.51;55.41;99917.74;1694538;84;20146;-78
2021/08/07 07:27:33;;;;;;;;;;;;;;;28.21;55.20;99918.53;1686177;84;20130;-78
2021/08/07 07:29:59;;;;;;;;;;;;;;;28.43;55.05;99919.85;1685323;84;20201;-78
2021/08/07 07:32:28;;;;;;;;;;;;;;;28.32;54.55;99917.45;1688500;84;20125;-78
2021/08/07 07:34:54;;;;;;;;;;;;;;;27.92;54.38;99921.44;1700306;81;20196;-78
2021/08/07 07:37:20;;;;;;;;;;;;;;;27.85;54.60;99920.38;1698491;83;20122;-78
2021/08/07 07:39:47;;;;;;;;;;;;;;;28.00;54.81;99922.00;1709316;83;20139;-78
2021/08/07 07:42:13;;;;;;;;;;;;;;;27.84;53.95;99927.17;1703015;83;20137;-78
2021/08/07 07:44:39;;;;;;;;;;;;;;;27.74;54.33;99920.60;1695776;83;521944;-78
2021/08/07 07:47:05;;;;;;;;;;;;;;;27.85;54.11;99923.53;1706404;83;20216;-78
2021/08/07 07:49:31;;;;;;;;;;;;;;;27.92;53.78;99919.27;1709400;83;20272;-78
2021/08/07 07:51:58;;;;;;;;;;;;;;;27.93;53.87;99928.42;1705666;83;20260;-78
2021/08/07 07:54:24;;;;;;;;;;;;;;;27.83;53.26;99922.35;1707115;83;20216;-78
2021/08/07 07:56:49;;;;;;;;;;;;;;;27.60;53.45;99927.77;1710802;82;20935;-78
2021/08/07 07:59:22;;;;;;;;;;;;;;;27.46;53.30;99921.14;1695260;83;20229;-78
2021/08/07 08:01:48;;;;;;;;;;;;;;;27.49;53.43;99927.97;1711422;82;20170;-78
2021/08/07 08:04:14;;;;;;;;;;;;;;;27.72;53.46;99926.56;1703150;83;20494;-78
2021/08/07 08:06:40;;;;;;;;;;;;;;;27.94;52.89;99930.09;1703618;83;20191;-78
2021/08/07 08:09:06;;;;;;;;;;;;;;;27.94;52.84;99924.78;1708574;83;20188;-78
2021/08/07 08:11:32;;;;;;;;;;;;;;;28.20;53.17;99930.61;1707776;81;20248;-78
2021/08/07 08:14:00;;;;;;;;;;;;;;;28.48;52.90;99932.19;1698256;81;20205;-78
2021/08/07 08:16:26;;;;;;;;;;;;;;;28.31;52.25;99928.58;1700290;83;20219;-78
2021/08/07 08:18:52;;;;;;;;;;;;;;;28.14;52.19;99937.38;1705365;83;20142;-78
2021/08/07 08:21:19;;;;;;;;;;;;;;;27.76;51.89;99943.03;1701069;81;20139;-78
2021/08/07 08:23:46;;;;;;;;;;;;;;;27.43;52.26;99940.52;1704209;81;20459;-78
2021/08/07 08:26:13;;;;;;;;;;;;;;;27.13;52.13;99940.32;1691553;83;20150;-78
2021/08/07 08:28:39;;;;;;;;;;;;;;;27.09;52.29;99941.11;1706521;83;20117;-78
2021/08/07 08:31:07;;;;;;;;;;;;;;;27.29;52.34;99937.38;1702208;83;20562;-78
2021/08/07 08:33:33;;;;;;;;;;;;;;;27.48;51.85;99935.10;1709420;83;20450;-78
2021/08/07 08:36:01;;;;;;;;;;;;;;;27.30;51.67;99935.06;1710822;83;20134;-78
2021/08/07 08:38:27;;;;;;;;;;;;;;;27.12;51.65;99938.16;1695390;81;20437;-78
2021/08/07 08:41:00;;;;;;;;;;;;;;;26.98;51.81;99939.50;1698538;83;20133;-78
2021/08/07 08:43:27;;;;;;;;;;;;;;;26.86;51.39;99937.15;1706443;83;20133;-78
2021/08/07 08:45:53;;;;;;;;;;;;;;;26.85;51.57;99936.31;1707526;81;20410;-78
2021/08/07 08:48:25;;;;;;;;;;;;;;;26.90;51.42;99942.02;1679068;83;20125;-78
2021/08/07 08:50:52;;;;;;;;;;;;;;;26.74;51.05;99944.45;1704892;81;20107;-78
2021/08/07 08:53:18;;;;;;;;;;;;;;;26.48;51.01;99950.05;1680440;84;20430;-78
2021/08/07 08:55:45;;;;;;;;;;;;;;;26.27;51.02;99953.67;1709461;81;20146;-78
2021/08/07 08:58:11;;;;;;;;;;;;;;;26.06;51.06;99954.30;1704906;83;20107;-77
2021/08/07 09:00:38;;;;;;;;;;;;;;;25.68;50.82;99950.67;1702992;81;20901;-77
2021/08/07 09:03:04;;;;;;;;;;;;;;;25.46;51.06;99948.26;1702317;83;20447;-77
2021/08/07 09:05:30;;;;;;;;;;;;;;;26.22;51.11;99951.92;1704413;83;20267;-77
2021/08/07 09:07:56;;;;;;;;;;;;;;;26.93;50.94;99952.34;1701036;81;20526;-77
2021/08/07 09:10:23;;;;;;;;;;;;;;;26.74;51.02;99960.84;1693392;83;20135;-77
2021/08/07 09:12:52;;;;;;;;;;;;;;;26.24;50.66;99959.73;1692860;83;20483;-77
2021/08/07 09:15:27;;;;;;;;;;;;;;;25.86;50.69;99948.67;1693324;81;20158;-77
2021/08/07 09:18:16;;;;;;;;;;;;;;;25.56;50.61;99942.47;1702668;81;20122;-77
2021/08/07 09:20:44;;;;;;;;;;;;;;;25.24;50.66;99951.12;1700638;83;20479;-77
2021/08/07 09:23:31;;;;;;;;;;;;;;;25.45;50.74;99941.29;1693329;82;20182;-77
2021/08/07 09:26:15;;;;;;;;;;;;;;;25.53;50.77;99951.17;1702284;83;20133;-77
2021/08/07 09:28:44;;;;;;;;;;;;;;;25.37;50.49;99946.42;1702854;83;20095;-77
2021/08/07 09:31:10;;;;;;;;;;;;;;;25.16;50.33;99950.95;1702957;81;20109;-77
2021/08/07 09:33:36;;;;;;;;;;;;;;;25.00;50.37;99946.14;1707903;83;20586;-77
2021/08/07 09:36:03;;;;;;;;;;;;;;;24.91;50.30;99937.20;1693140;83;20099;-77
2021/08/07 09:38:32;;;;;;;;;;;;;;;24.87;50.22;99940.23;1694409;84;20134;-78
2021/08/07 09:41:01;;;;;;;;;;;;;;;24.79;50.26;99940.06;1696166;84;20142;-78
2021/08/07 09:43:33;;;;;;;;;;;;;;;24.77;50.29;99940.19;1681589;84;20152;-78
2021/08/07 09:46:12;;;;;;;;;;;;;;;24.78;50.24;99934.41;1676425;84;20129;-78
2021/08/07 09:48:47;;;;;;;;;;;;;;;24.75;50.17;99939.00;1690582;84;20120;-78
2021/08/07 09:51:25;;;;;;;;;;;;;;;24.74;50.30;99935.16;1675387;84;20622;-78
2021/08/07 09:54:19;;;;;;;;;;;;;;;24.83;50.36;99938.83;1687996;84;20184;-78
2021/08/07 09:56:58;;;;;;;;;;;;;;;24.89;50.00;99939.14;1678624;83;20154;-78
2021/08/07 09:59:29;;;;;;;;;;;;;;;24.95;50.12;99936.45;1682633;84;20161;-77
2021/08/07 10:02:05;;;;;;;;;;;;;;;24.93;49.87;99938.39;1683246;84;20118;-77
2021/08/07 10:04:40;;;;;;;;;;;;;;;24.84;49.79;99934.73;1694483;84;20165;-78
2021/08/07 10:07:08;;;;;;;;;;;;;;;24.73;49.89;99935.65;1687606;83;20158;-78
2021/08/07 10:09:36;;;;;;;;;;;;;;;24.80;49.99;99938.60;1676387;85;20159;-78
2021/08/07 10:12:05;;;;;;;;;;;;;;;24.85;49.97;99932.44;1661856;84;20165;-78
2021/08/07 10:14:32;;;;;;;;;;;;;;;24.91;49.97;99930.58;1688590;84;20157;-78
2021/08/07 10:17:00;;;;;;;;;;;;;;;24.96;49.86;99935.00;1688672;84;20560;-78
2021/08/07 10:19:26;;;;;;;;;;;;;;;24.90;49.78;99932.87;1684068;84;20160;-78
2021/08/07 10:21:54;;;;;;;;;;;;;;;24.92;49.84;99935.39;1677138;84;20465;-78
2021/08/07 10:24:21;;;;;;;;;;;;;;;24.97;49.86;99935.34;1677211;84;20208;-78
2021/08/07 10:26:48;;;;;;;;;;;;;;;25.07;49.85;99938.87;1681418;84;20548;-78
2021/08/07 10:29:19;;;;;;;;;;;;;;;25.16;49.66;99927.97;1674369;84;20471;-78
2021/08/07 10:31:45;;;;;;;;;;;;;;;25.25;49.65;99925.84;1682683;84;20431;-78
2021/08/07 10:34:11;;;;;;;;;;;;;;;25.31;49.54;99931.08;1677803;84;20742;-78
2021/08/07 10:36:37;;;;;;;;;;;;;;;25.44;49.68;99928.19;1711808;83;20204;-78
2021/08/07 10:39:05;;;;;;;;;;;;;;;25.54;49.39;99934.31;1723657;83;20428;-78
2021/08/07 10:41:32;;;;;;;;;;;;;;;25.49;49.33;99936.53;1720567;83;20154;-78
2021/08/07 10:43:59;;;;;;;;;;;;;;;25.46;49.33;99931.05;1725260;83;20124;-78
2021/08/07 10:46:25;;;;;;;;;;;;;;;25.55;49.30;99927.55;1706935;83;20430;-78
2021/08/07 10:48:52;;;;;;;;;;;;;;;25.66;49.27;99926.63;1724649;82;20589;-78
2021/08/07 10:51:25;;;;;;;;;;;;;;;25.74;49.35;99918.83;1705822;83;20390;-78
2021/08/07 10:53:57;;;;;;;;;;;;;;;25.82;49.18;99924.77;1715790;83;20841;-78
2021/08/07 10:56:29;;;;;;;;;;;;;;;25.84;49.00;99928.11;1720267;83;20435;-78
2021/08/07 10:59:11;;;;;;;;;;;;;;;25.71;48.98;99924.41;1725321;83;20930;-78
2021/08/07 11:01:39;;;;;;;;;;;;;;;25.72;49.05;99925.59;1715941;83;20239;-78
2021/08/07 11:04:11;;;;;;;;;;;;;;;25.82;48.94;99934.03;1714701;83;20748;-78
2021/08/07 11:06:47;;;;;;;;;;;;;;;25.90;49.04;99931.53;1708097;83;20162;-78
2021/08/07 11:09:39;;;;;;;;;;;;;;;25.97;48.82;99928.19;1718576;82;20119;-78
2021/08/07 11:12:15;;;;;;;;;;;;;;;26.10;48.78;99923.06;1724311;83;20664;-78
2021/08/07 11:14:51;;;;;;;;;;;;;;;26.21;48.54;99915.80;1713994;83;20988;-78
2021/08/07 11:17:20;;;;;;;;;;;;;;;26.33;48.57;99928.44;1719409;82;20749;-78
2021/08/07 11:19:56;;;;;;;;;;;;;;;26.46;48.35;99921.52;1723135;83;20561;-78
2021/08/07 11:22:37;;;;;;;;;;;;;;;26.61;48.36;99906.79;1714800;83;20147;-78
2021/08/07 11:25:21;;;;;;;;;;;;;;;26.73;48.18;99909.61;1708130;83;20393;-78
2021/08/07 11:30:39;;;;;;;;;;;;;;;26.88;47.91;99904.18;1703904;83;20941;-77
2021/08/07 11:33:13;;;;;;;;;;;;;;;26.94;47.90;99904.92;1710084;83;20441;-81
2021/08/07 11:35:45;;;;;;;;;;;;;;;27.05;48.03;99898.59;1692534;83;20957;-81
2021/08/07 11:38:17;;;;;;;;;;;;;;;27.09;47.62;99892.50;1693320;83;21017;-83
2021/08/07 11:40:49;;;;;;;;;;;;;;;27.04;47.48;99903.55;1695779;83;20216;-82
2021/08/07 11:43:18;;;;;;;;;;;;;;;26.90;47.37;99902.71;1665458;84;20566;-82
2021/08/07 11:45:49;;;;;;;;;;;;;;;26.74;47.24;99899.34;1661413;85;20521;-82
2021/08/07 11:48:35;;;;;;;;;;;;;;;26.61;47.19;99910.77;1676313;85;20513;-82
2021/08/07 11:51:04;;;;;;;;;;;;;;;26.54;47.17;99913.65;1680044;85;21009;-81
2021/08/07 11:53:32;;;;;;;;;;;;;;;26.57;47.01;99903.59;1675361;85;20097;-82
2021/08/07 11:56:01;;;;;;;;;;;;;;;26.66;47.13;99908.52;1672952;85;20133;-80
2021/08/07 11:58:28;;;;;;;;;;;;;;;26.71;46.81;99895.66;1678259;84;20561;-79
2021/08/07 12:00:59;;;;;;;;;;;;;;;26.74;46.87;99893.20;1672373;85;20130;-80
2021/08/07 12:03:26;;;;;;;;;;;;;;;26.79;46.71;99897.09;1681912;85;20484;-79
2021/08/07 12:05:55;;;;;;;;;;;;;;;26.85;46.44;99898.33;1681916;85;20202;-80
2021/08/07 12:08:24;;;;;;;;;;;;;;;26.95;46.28;99903.11;1681621;84;20174;-79
2021/08/07 12:10:53;;;;;;;;;;;;;;;27.06;46.32;99903.41;1673317;85;20528;-78
2021/08/07 12:13:24;;;;;;;;;;;;;;;27.08;45.99;99896.97;1679610;85;20106;-78
2021/08/07 12:16:05;;;;;;;;;;;;;;;27.11;45.98;99896.67;1680457;85;20517;-78
2021/08/07 12:18:47;;;;;;;;;;;;;;;27.15;45.91;99889.25;1674904;85;20087;-77
2021/08/07 12:21:16;;;;;;;;;;;;;;;27.24;45.92;99889.20;1671505;85;20146;-78
2021/08/07 12:23:45;;;;;;;;;;;;;;;27.34;45.73;99886.48;1671053;85;20139;-78
2021/08/07 12:26:13;;;;;;;;;;;;;;;27.34;45.70;99883.83;1678081;84;20426;-78
2021/08/07 12:28:46;;;;;;;;;;;;;;;27.36;45.63;99874.73;1677728;85;20107;-78
2021/08/07 12:31:13;;;;;;;;;;;;;;;27.35;45.56;99866.42;1675492;85;20408;-78
2021/08/07 12:33:41;;;;;;;;;;;;;;;27.42;45.54;99865.33;1672336;85;20544;-78
2021/08/07 12:36:15;;;;;;;;;;;;;;;27.50;45.38;99876.03;1679682;83;20122;-78
2021/08/07 12:38:49;;;;;;;;;;;;;;;27.59;45.28;99875.12;1681494;84;20414;-78
2021/08/07 12:41:22;;;;;;;;;;;;;;;27.66;45.00;99868.72;1722738;82;20135;-78
2021/08/07 12:43:50;;;;;;;;;;;;;;;27.69;45.12;99871.07;1712943;82;20086;-78
2021/08/07 12:46:19;;;;;;;;;;;;;;;27.67;44.81;99877.03;1719045;82;20185;-78
2021/08/07 12:48:59;;;;;;;;;;;;;;;27.59;44.71;99882.27;1710950;82;20111;-78
2021/08/07 12:51:30;;;;;;;;;;;;;;;27.51;44.73;99883.02;1720239;81;20146;-78
2021/08/07 12:53:59;;;;;;;;;;;;;;;27.50;44.60;99881.34;1729348;81;20134;-78
2021/08/07 12:56:29;;;;;;;;;;;;;;;27.54;44.57;99873.42;1726355;81;20156;-78
2021/08/07 12:59:06;;;;;;;;;;;;;;;27.55;44.44;99877.75;1732737;81;20128;-78